createdAt,value
2018-12-18T00:00:47.208Z,100248.59
2018-12-18T00:03:15.465Z,100248.98
2018-12-18T00:05:43.646Z,100254.35
2018-12-18T00:08:12.485Z,100247.95
2018-12-18T00:10:46.656Z,100251.75
2018-12-18T00:13:15.225Z,100252.41
2018-12-18T00:15:43.458Z,100237.30
2018-12-18T00:18:11.655Z,100240.02
2018-12-18T00:20:39.885Z,100238.77
2018-12-18T00:23:09.155Z,100242.34
2018-12-18T00:25:37.440Z,100236.89
2018-12-18T00:28:05.640Z,100235.00
2018-12-18T00:30:34.264Z,100223.41
2018-12-18T00:33:02.470Z,100221.22
2018-12-18T00:35:30.734Z,100217.23
2018-12-18T00:37:59.374Z,100218.88
2018-12-18T00:40:27.629Z,100212.63
2018-12-18T00:42:56.622Z,100215.56
2018-12-18T00:45:25.179Z,100209.89
2018-12-18T00:47:53.440Z,100203.97
2018-12-18T00:50:21.656Z,100199.17
2018-12-18T00:52:50.539Z,100202.77
2018-12-18T00:55:18.720Z,100201.92
2018-12-18T00:57:47.744Z,100197.28
2018-12-18T01:00:16.054Z,100191.44
2018-12-18T01:02:44.437Z,100196.41
2018-12-18T01:05:12.708Z,100194.28
2018-12-18T01:07:41.612Z,100198.12
2018-12-18T01:10:10.250Z,100192.73
2018-12-18T01:12:38.447Z,100197.14
2018-12-18T01:15:06.840Z,100187.05
2018-12-18T01:17:35.241Z,100187.58
2018-12-18T01:20:03.508Z,100192.96
2018-12-18T01:22:31.781Z,100193.19
2018-12-18T01:24:59.963Z,100205.57
2018-12-18T01:27:28.224Z,100197.95
2018-12-18T01:29:56.435Z,100197.90
2018-12-18T01:32:25.908Z,100193.83
2018-12-18T01:34:54.413Z,100197.22
2018-12-18T01:37:22.662Z,100201.80
2018-12-18T01:39:50.957Z,100200.16
2018-12-18T01:42:19.237Z,100198.67
2018-12-18T01:44:47.537Z,100200.23
2018-12-18T01:47:15.755Z,100198.53
2018-12-18T01:49:43.927Z,100201.67
2018-12-18T01:52:12.108Z,100195.91
2018-12-18T01:54:40.274Z,100195.96
2018-12-18T01:57:08.502Z,100193.52
2018-12-18T01:59:37.249Z,100194.25
2018-12-18T02:02:05.420Z,100186.74
2018-12-18T02:04:33.566Z,100184.92
2018-12-18T02:07:02.030Z,100187.81
2018-12-18T02:09:30.227Z,100185.38
2018-12-18T02:11:58.494Z,100179.86
2018-12-18T02:14:26.885Z,100178.29
2018-12-18T02:16:55.649Z,100181.06
2018-12-18T02:19:23.837Z,100179.22
2018-12-18T02:21:52.104Z,100174.39
2018-12-18T02:24:20.300Z,100175.56
2018-12-18T02:26:48.488Z,100165.16
2018-12-18T02:29:16.676Z,100164.98
2018-12-18T02:31:44.946Z,100168.70
2018-12-18T02:34:13.961Z,100177.64
2018-12-18T02:36:42.374Z,100178.91
2018-12-18T02:39:10.592Z,100164.16
2018-12-18T02:41:38.755Z,100163.80
2018-12-18T02:44:07.393Z,100161.11
2018-12-18T02:46:35.613Z,100159.45
2018-12-18T02:49:03.769Z,100148.44
2018-12-18T02:51:32.054Z,100150.21
2018-12-18T02:54:00.209Z,100149.68
2018-12-18T02:56:28.869Z,100151.25
2018-12-18T02:58:57.071Z,100146.63
2018-12-18T03:01:25.216Z,100155.66
2018-12-18T03:03:53.575Z,100159.19
2018-12-18T03:06:21.716Z,100160.28
2018-12-18T03:08:50.266Z,100160.98
2018-12-18T03:11:20.419Z,100164.98
2018-12-18T03:13:49.392Z,100160.23
2018-12-18T03:16:17.581Z,100159.22
2018-12-18T03:18:45.932Z,100151.95
2018-12-18T03:21:15.554Z,100150.03
2018-12-18T03:23:43.896Z,100148.20
2018-12-18T03:26:12.038Z,100136.22
2018-12-18T03:28:40.601Z,100148.38
2018-12-18T03:31:08.966Z,100138.50
2018-12-18T03:33:37.330Z,100130.59
2018-12-18T03:36:05.691Z,100127.74
2018-12-18T03:38:34.742Z,100132.09
2018-12-18T03:41:02.971Z,100133.77
2018-12-18T03:43:31.186Z,100134.01
2018-12-18T03:45:59.668Z,100141.72
2018-12-18T03:48:27.995Z,100141.20
2018-12-18T03:50:57.205Z,100143.92
2018-12-18T03:53:26.856Z,100139.67
2018-12-18T03:55:58.315Z,100136.94
2018-12-18T03:58:28.486Z,100134.94
2018-12-18T04:00:56.774Z,100129.30
2018-12-18T04:03:24.931Z,100124.71
2018-12-18T04:05:53.204Z,100119.56
2018-12-18T04:08:21.877Z,100117.55
2018-12-18T04:10:50.251Z,100104.06
2018-12-18T04:13:18.545Z,100102.00
2018-12-18T04:15:48.997Z,100103.33
2018-12-18T04:18:17.876Z,100102.70
2018-12-18T04:21:04.403Z,100107.99
2018-12-18T04:23:32.673Z,100093.02
2018-12-18T04:26:03.064Z,100093.95
2018-12-18T04:28:31.277Z,100087.34
2018-12-18T04:30:59.575Z,100088.48
2018-12-18T04:33:27.985Z,100088.34
2018-12-18T04:35:57.243Z,100079.35
2018-12-18T04:38:27.228Z,100076.73
2018-12-18T04:40:55.768Z,100077.27
2018-12-18T04:43:23.981Z,100070.77
2018-12-18T04:45:52.157Z,100065.56
2018-12-18T04:48:20.329Z,100074.83
2018-12-18T04:50:48.517Z,100071.52
2018-12-18T04:53:16.663Z,100068.34
2018-12-18T04:55:44.869Z,100067.94
2018-12-18T04:58:13.151Z,100071.02
2018-12-18T05:00:41.805Z,100066.78
2018-12-18T05:03:10.077Z,100076.44
2018-12-18T05:05:38.618Z,100077.94
2018-12-18T05:08:07.106Z,100080.25
2018-12-18T05:10:35.475Z,100083.55
2018-12-18T05:13:03.844Z,100087.61
2018-12-18T05:15:32.011Z,100092.01
2018-12-18T05:18:00.175Z,100094.40
2018-12-18T05:20:29.845Z,100098.24
2018-12-18T05:22:58.124Z,100098.69
2018-12-18T05:25:26.354Z,100106.14
2018-12-18T05:27:54.609Z,100096.81
2018-12-18T05:30:22.886Z,100097.80
2018-12-18T05:32:51.228Z,100098.80
2018-12-18T05:35:19.433Z,100103.37
2018-12-18T05:37:47.684Z,100115.86
2018-12-18T05:40:15.890Z,100107.09
2018-12-18T05:42:44.520Z,100104.58
2018-12-18T05:45:16.989Z,100105.20
2018-12-18T05:47:45.228Z,100108.72
2018-12-18T05:50:14.264Z,100111.71
2018-12-18T05:52:42.463Z,100101.92
2018-12-18T05:55:11.113Z,100105.54
2018-12-18T05:57:39.288Z,100102.34
2018-12-18T06:00:07.757Z,100097.63
2018-12-18T06:02:36.007Z,100092.03
2018-12-18T06:05:04.983Z,100105.77
2018-12-18T06:07:33.242Z,100101.06
2018-12-18T06:10:01.408Z,100103.37
2018-12-18T06:12:30.047Z,100100.38
2018-12-18T06:14:58.279Z,100100.47
2018-12-18T06:17:26.589Z,100106.13
2018-12-18T06:19:54.792Z,100104.06
2018-12-18T06:22:23.060Z,100102.63
2018-12-18T06:24:51.292Z,100116.09
2018-12-18T06:27:19.579Z,100112.81
2018-12-18T06:29:47.836Z,100109.11
2018-12-18T06:32:16.357Z,100095.33
2018-12-18T06:34:44.563Z,100079.92
2018-12-18T06:37:12.743Z,100077.33
2018-12-18T06:39:41.263Z,100075.07
2018-12-18T06:42:09.458Z,100079.02
2018-12-18T06:44:37.682Z,100071.25
2018-12-18T06:47:05.999Z,100068.53
2018-12-18T06:49:34.153Z,100059.55
2018-12-18T06:52:02.403Z,100050.00
2018-12-18T06:54:30.966Z,100044.45
2018-12-18T06:56:59.267Z,100043.56
2018-12-18T06:59:27.467Z,100038.60
2018-12-18T07:01:56.100Z,100037.78
2018-12-18T07:04:24.295Z,100037.00
2018-12-18T07:06:52.473Z,100038.03
2018-12-18T07:09:20.635Z,100050.80
2018-12-18T07:11:48.803Z,100050.80
2018-12-18T07:14:17.011Z,100047.92
2018-12-18T07:16:45.185Z,100047.25
2018-12-18T07:19:13.397Z,100044.94
2018-12-18T07:21:41.951Z,100048.73
2018-12-18T07:24:14.083Z,100055.45
2018-12-18T07:26:40.328Z,100042.13
2018-12-18T07:29:08.788Z,100042.54
2018-12-18T07:31:36.977Z,100035.75
2018-12-18T07:34:05.221Z,100036.47
2018-12-18T07:36:33.569Z,100035.06
2018-12-18T07:39:01.744Z,100045.13
2018-12-18T07:41:31.149Z,100043.53
2018-12-18T07:43:59.423Z,100037.58
2018-12-18T07:46:28.213Z,100041.25
2018-12-18T07:48:56.448Z,100041.34
2018-12-18T07:51:25.798Z,100038.48
2018-12-18T07:53:54.037Z,100037.84
2018-12-18T07:56:22.203Z,100043.70
2018-12-18T07:58:50.613Z,100040.83
2018-12-18T08:01:20.097Z,100032.64
2018-12-18T08:03:48.409Z,100026.95
2018-12-18T08:06:16.723Z,100036.42
2018-12-18T08:08:44.871Z,100047.00
2018-12-18T08:11:13.165Z,100042.02
2018-12-18T08:13:41.829Z,100046.46
2018-12-18T08:16:10.057Z,100041.44
2018-12-18T08:18:38.808Z,100026.57
2018-12-18T08:21:07.351Z,100019.44
2018-12-18T08:23:35.473Z,100021.58
2018-12-18T08:26:03.660Z,100010.92
2018-12-18T08:28:31.865Z,100012.63
2018-12-18T08:31:00.212Z,100013.50
2018-12-18T08:33:28.930Z,100018.70
2018-12-18T08:35:58.006Z,100014.88
2018-12-18T08:38:26.420Z,100011.63
2018-12-18T08:40:54.584Z,100009.95
2018-12-18T08:43:23.687Z,100011.38
2018-12-18T08:45:51.904Z,100008.94
2018-12-18T08:48:20.052Z,100017.03
2018-12-18T08:50:48.522Z,100013.61
2018-12-18T08:53:16.855Z,100010.70
2018-12-18T08:55:44.999Z,100005.20
2018-12-18T08:58:14.583Z,100009.30
2018-12-18T09:00:42.780Z,100000.39
2018-12-18T09:03:11.065Z,100003.63
2018-12-18T09:05:43.150Z,99996.92
2018-12-18T09:08:10.500Z,99996.56
2018-12-18T09:10:40.030Z,99990.43
2018-12-18T09:13:09.543Z,99998.55
2018-12-18T09:15:43.037Z,99995.48
2018-12-18T09:18:11.521Z,99984.45
2018-12-18T09:20:39.738Z,99986.84
2018-12-18T09:23:08.026Z,99989.42
2018-12-18T09:25:36.306Z,99986.64
2018-12-18T09:28:04.596Z,99990.74
2018-12-18T09:30:32.843Z,99990.87
2018-12-18T09:33:02.097Z,99987.66
2018-12-18T09:35:30.332Z,99984.63
2018-12-18T09:38:04.203Z,99983.31
2018-12-18T09:40:36.582Z,99971.80
2018-12-18T09:43:10.837Z,99960.33
2018-12-18T09:45:39.059Z,99956.96
2018-12-18T09:48:07.253Z,99940.94
2018-12-18T09:50:35.503Z,99936.11
2018-12-18T09:53:03.710Z,99926.89
2018-12-18T09:55:31.863Z,99920.30
2018-12-18T09:58:01.038Z,99930.42
2018-12-18T10:00:29.213Z,99933.41
2018-12-18T10:02:57.456Z,99923.13
2018-12-18T10:05:25.761Z,99928.36
2018-12-18T10:07:53.973Z,99917.35
2018-12-18T10:10:22.188Z,99918.63
2018-12-18T10:12:56.008Z,99923.91
2018-12-18T10:15:25.028Z,99914.80
2018-12-18T10:17:53.584Z,99907.54
2018-12-18T10:20:21.871Z,99905.41
2018-12-18T10:22:50.147Z,99902.39
2018-12-18T10:25:19.299Z,99905.30
2018-12-18T10:27:47.474Z,99908.44
2018-12-18T10:30:16.419Z,99907.52
2018-12-18T10:32:44.748Z,99907.60
2018-12-18T10:35:12.922Z,99905.48
2018-12-18T10:37:41.129Z,99894.92
2018-12-18T10:40:10.683Z,99890.38
2018-12-18T10:42:38.822Z,99884.94
2018-12-18T10:45:13.872Z,99873.32
2018-12-18T10:47:41.221Z,99864.19
2018-12-18T10:50:09.539Z,99873.02
2018-12-18T10:52:38.058Z,99860.45
2018-12-18T10:55:07.021Z,99860.45
2018-12-18T10:57:35.140Z,99857.98
2018-12-18T11:00:04.044Z,99853.14
2018-12-18T11:02:32.208Z,99855.95
2018-12-18T11:05:00.379Z,99853.95
2018-12-18T11:07:29.130Z,99846.56
2018-12-18T11:09:57.277Z,99846.83
2018-12-18T11:12:38.252Z,99840.84
2018-12-18T11:15:07.993Z,99840.36
2018-12-18T11:17:36.243Z,99834.56
2018-12-18T11:20:05.984Z,99832.28
2018-12-18T11:22:34.231Z,99827.78
2018-12-18T11:25:02.524Z,99840.23
2018-12-18T11:27:31.530Z,99827.53
2018-12-18T11:29:59.657Z,99831.49
2018-12-18T11:32:33.091Z,99822.39
2018-12-18T11:34:58.131Z,99816.96
2018-12-18T11:37:26.348Z,99816.63
2018-12-18T11:39:54.553Z,99812.82
2018-12-18T11:42:23.169Z,99802.27
2018-12-18T11:44:51.342Z,99791.88
2018-12-18T11:47:19.487Z,99785.41
2018-12-18T11:49:48.149Z,99777.90
2018-12-18T11:52:16.312Z,99776.26
2018-12-18T11:54:44.627Z,99771.26
2018-12-18T11:57:13.123Z,99759.76
2018-12-18T11:59:41.794Z,99761.99
2018-12-18T12:02:09.943Z,99762.30
2018-12-18T12:04:38.825Z,99757.72
2018-12-18T12:07:07.116Z,99758.19
2018-12-18T12:09:36.789Z,99756.17
2018-12-18T12:12:05.964Z,99741.45
2018-12-18T12:14:34.257Z,99744.10
2018-12-18T12:17:02.492Z,99739.09
2018-12-18T12:19:31.259Z,99731.97
2018-12-18T12:21:59.469Z,99725.31
2018-12-18T12:24:27.724Z,99720.22
2018-12-18T12:27:00.042Z,99716.40
2018-12-18T12:29:28.205Z,99718.57
2018-12-18T12:31:56.407Z,99715.70
2018-12-18T12:34:24.623Z,99714.30
2018-12-18T12:36:52.955Z,99707.62
2018-12-18T12:39:21.795Z,99700.42
2018-12-18T12:41:50.091Z,99702.61
2018-12-18T12:44:18.241Z,99705.09
2018-12-18T12:46:47.073Z,99703.67
2018-12-18T12:49:15.291Z,99691.09
2018-12-18T12:51:43.522Z,99677.56
2018-12-18T12:54:11.676Z,99672.30
2018-12-18T12:56:39.806Z,99673.57
2018-12-18T12:59:08.372Z,99665.73
2018-12-18T13:01:42.179Z,99665.06
2018-12-18T13:04:06.835Z,99656.41
2018-12-18T13:06:36.558Z,99649.02
2018-12-18T13:09:08.397Z,99630.48
2018-12-18T13:11:37.351Z,99638.57
2018-12-18T13:14:05.575Z,99628.53
2018-12-18T13:16:33.775Z,99618.67
2018-12-18T13:19:01.916Z,99612.07
2018-12-18T13:21:30.741Z,99610.41
2018-12-18T13:23:59.006Z,99603.61
2018-12-18T13:26:28.409Z,99592.43
2018-12-18T13:28:56.657Z,99587.44
2018-12-18T13:31:24.949Z,99584.64
2018-12-18T13:33:53.960Z,99577.03
2018-12-18T13:36:22.200Z,99571.66
2018-12-18T13:38:50.422Z,99576.17
2018-12-18T13:41:18.966Z,99562.64
2018-12-18T13:43:47.220Z,99555.66
2018-12-18T13:46:15.860Z,99553.80
2018-12-18T13:48:44.083Z,99545.41
2018-12-18T13:51:12.384Z,99543.45
2018-12-18T13:53:47.748Z,99525.81
2018-12-18T13:56:15.915Z,99526.34
2018-12-18T13:58:44.238Z,99519.30
2018-12-18T14:01:13.027Z,99505.11
2018-12-18T14:03:41.204Z,99501.41
2018-12-18T14:06:09.379Z,99503.19
2018-12-18T14:08:37.577Z,99501.17
2018-12-18T14:11:06.292Z,99498.20
2018-12-18T14:13:34.482Z,99494.41
2018-12-18T14:16:02.672Z,99496.05
2018-12-18T14:18:31.012Z,99490.03
2018-12-18T14:20:59.190Z,99493.83
2018-12-18T14:23:27.418Z,99493.36
2018-12-18T14:25:56.132Z,99500.88
2018-12-18T14:28:24.345Z,99503.64
2018-12-18T14:30:52.664Z,99496.52
2018-12-18T14:33:21.344Z,99490.13
2018-12-18T14:35:49.754Z,99481.55
2018-12-18T14:38:21.133Z,99483.45
2018-12-18T14:40:49.307Z,99469.20
2018-12-18T14:43:17.520Z,99448.59
2018-12-18T14:45:45.825Z,99448.84
2018-12-18T14:48:13.995Z,99452.99
2018-12-18T14:50:42.175Z,99443.41
2018-12-18T14:53:10.523Z,99440.41
2018-12-18T14:55:38.905Z,99427.05
2018-12-18T14:58:07.044Z,99424.25
2018-12-18T15:00:35.240Z,99414.19
2018-12-18T15:03:03.445Z,99409.30
2018-12-18T15:05:31.953Z,99410.23
2018-12-18T15:08:00.195Z,99409.20
2018-12-18T15:10:28.334Z,99404.58
2018-12-18T15:12:57.505Z,99403.61
2018-12-18T15:15:25.679Z,99404.88
2018-12-18T15:17:54.405Z,99407.52
2018-12-18T15:20:23.091Z,99412.30
2018-12-18T15:22:52.363Z,99409.72
2018-12-18T15:25:20.533Z,99414.91
2018-12-18T15:27:49.407Z,99415.52
2018-12-18T15:30:18.885Z,99415.39
2018-12-18T15:32:47.066Z,99419.24
2018-12-18T15:35:15.753Z,99410.44
2018-12-18T15:37:44.166Z,99408.00
2018-12-18T15:40:12.543Z,99396.94
2018-12-18T15:42:40.848Z,99399.65
2018-12-18T15:45:09.232Z,99400.17
2018-12-18T15:47:37.666Z,99403.15
2018-12-18T15:50:07.568Z,99410.78
2018-12-18T15:52:35.845Z,99407.81
2018-12-18T15:55:04.513Z,99411.24
2018-12-18T15:57:32.679Z,99414.02
2018-12-18T16:00:01.601Z,99414.37
2018-12-18T16:02:29.858Z,99410.50
2018-12-18T16:04:58.199Z,99403.13
2018-12-18T16:07:26.467Z,99405.96
2018-12-18T16:09:54.705Z,99403.57
2018-12-18T16:12:22.890Z,99396.01
2018-12-18T16:14:51.258Z,99399.75
2018-12-18T16:17:19.416Z,99392.00
2018-12-18T16:19:47.617Z,99394.56
2018-12-18T16:22:15.834Z,99384.67
2018-12-18T16:24:43.952Z,99386.69
2018-12-18T16:27:12.133Z,99377.58
2018-12-18T16:29:40.682Z,99375.26
2018-12-18T16:32:08.848Z,99371.90
2018-12-18T16:34:37.099Z,99372.83
2018-12-18T16:37:05.707Z,99372.83
2018-12-18T16:39:34.058Z,99370.55
2018-12-18T16:42:02.395Z,99374.80
2018-12-18T16:44:31.163Z,99378.37
2018-12-18T16:46:59.590Z,99385.68
2018-12-18T16:49:28.680Z,99376.48
2018-12-18T16:51:57.272Z,99373.37
2018-12-18T16:54:25.695Z,99364.20
2018-12-18T16:56:54.205Z,99363.21
2018-12-18T16:59:22.646Z,99361.72
2018-12-18T17:01:50.876Z,99354.61
2018-12-18T17:04:20.734Z,99354.86
2018-12-18T17:06:49.054Z,99341.89
2018-12-18T17:09:18.155Z,99329.56
2018-12-18T17:11:46.347Z,99321.42
2018-12-18T17:14:15.278Z,99334.50
2018-12-18T17:16:43.458Z,99322.83
2018-12-18T17:19:12.035Z,99322.56
2018-12-18T17:21:40.251Z,99317.20
2018-12-18T17:24:08.578Z,99312.73
2018-12-18T17:26:36.742Z,99309.11
2018-12-18T17:29:05.002Z,99301.75
2018-12-18T17:31:33.263Z,99301.19
2018-12-18T17:34:01.517Z,99296.33
2018-12-18T17:36:30.211Z,99285.50
2018-12-18T17:38:58.771Z,99277.45
2018-12-18T17:41:26.927Z,99272.94
2018-12-18T17:43:55.175Z,99260.63
2018-12-18T17:46:23.485Z,99252.26
2018-12-18T17:48:52.260Z,99256.86
2018-12-18T17:51:20.463Z,99251.23
2018-12-18T17:53:48.700Z,99249.05
2018-12-18T17:56:18.228Z,99241.99
2018-12-18T17:58:47.757Z,99245.28
2018-12-18T18:01:16.060Z,99244.67
2018-12-18T18:03:44.264Z,99242.22
2018-12-18T18:06:12.482Z,99237.65
2018-12-18T18:08:40.811Z,99234.42
2018-12-18T18:11:09.695Z,99231.64
2018-12-18T18:13:37.833Z,99230.11
2018-12-18T18:16:06.797Z,99229.84
2018-12-18T18:18:35.023Z,99230.55
2018-12-18T18:21:03.190Z,99233.45
2018-12-18T18:23:31.493Z,99216.77
2018-12-18T18:26:00.475Z,99217.88
2018-12-18T18:28:29.674Z,99213.19
2018-12-18T18:30:57.859Z,99209.41
2018-12-18T18:33:26.087Z,99220.88
2018-12-18T18:35:54.965Z,99219.19
2018-12-18T18:38:23.220Z,99223.72
2018-12-18T18:40:51.430Z,99222.28
2018-12-18T18:43:20.071Z,99229.61
2018-12-18T18:45:48.295Z,99236.56
2018-12-18T18:48:17.152Z,99213.47
2018-12-18T18:50:45.714Z,99204.25
2018-12-18T18:53:13.936Z,99197.22
2018-12-18T18:55:42.068Z,99192.24
2018-12-18T18:58:10.251Z,99199.41
2018-12-18T19:00:38.399Z,99193.21
2018-12-18T19:03:06.674Z,99208.31
2018-12-18T19:05:34.894Z,99215.54
2018-12-18T19:08:03.228Z,99218.77
2018-12-18T19:10:31.555Z,99213.83
2018-12-18T19:13:00.080Z,99209.75
2018-12-18T19:15:28.378Z,99211.62
2018-12-18T19:17:56.832Z,99194.17
2018-12-18T19:20:25.105Z,99188.59
2018-12-18T19:22:53.357Z,99192.70
2018-12-18T19:25:21.512Z,99196.49
2018-12-18T19:27:49.712Z,99201.94
2018-12-18T19:30:18.968Z,99197.77
2018-12-18T19:32:47.279Z,99195.18
2018-12-18T19:35:15.703Z,99187.06
2018-12-18T19:37:43.938Z,99199.89
2018-12-18T19:40:12.085Z,99202.37
2018-12-18T19:42:40.878Z,99192.74
2018-12-18T19:45:09.420Z,99184.16
2018-12-18T19:47:37.684Z,99177.78
2018-12-18T19:50:06.067Z,99173.98
2018-12-18T19:52:34.599Z,99165.97
2018-12-18T19:55:03.040Z,99166.77
2018-12-18T19:57:31.398Z,99163.77
2018-12-18T19:59:59.557Z,99162.97
2018-12-18T20:02:28.037Z,99167.49
2018-12-18T20:04:56.171Z,99170.63
2018-12-18T20:07:24.496Z,99156.72
2018-12-18T20:09:52.972Z,99152.39
2018-12-18T20:12:22.117Z,99152.73
2018-12-18T20:14:50.302Z,99145.91
2018-12-18T20:17:18.839Z,99151.48
2018-12-18T20:19:47.269Z,99133.82
2018-12-18T20:22:15.559Z,99134.11
2018-12-18T20:24:43.693Z,99137.97
2018-12-18T20:27:11.896Z,99123.25
2018-12-18T20:29:40.460Z,99120.45
2018-12-18T20:32:08.755Z,99115.01
2018-12-18T20:34:36.965Z,99106.61
2018-12-18T20:37:05.313Z,99103.06
2018-12-18T20:39:34.363Z,99115.08
2018-12-18T20:42:02.544Z,99120.12
2018-12-18T20:44:30.787Z,99133.59
2018-12-18T20:47:00.047Z,99126.78
2018-12-18T20:49:28.907Z,99108.87
2018-12-18T20:51:57.117Z,99092.89
2018-12-18T20:54:25.280Z,99079.88
2018-12-18T20:56:54.191Z,99082.64
2018-12-18T20:59:22.455Z,99084.69
2018-12-18T21:01:50.572Z,99085.42
2018-12-18T21:04:18.797Z,99089.20
2018-12-18T21:06:47.017Z,99076.59
2018-12-18T21:09:15.489Z,99073.42
2018-12-18T21:11:43.666Z,99059.22
2018-12-18T21:14:11.838Z,99066.59
2018-12-18T21:16:40.020Z,99064.03
2018-12-18T21:19:08.398Z,99068.30
2018-12-18T21:21:36.965Z,99077.61
2018-12-18T21:24:05.244Z,99087.33
2018-12-18T21:26:33.985Z,99090.61
2018-12-18T21:29:02.524Z,99097.65
2018-12-18T21:31:31.403Z,99084.91
2018-12-18T21:33:59.657Z,99085.07
2018-12-18T21:36:28.411Z,99073.99
2018-12-18T21:38:56.611Z,99073.83
2018-12-18T21:41:24.902Z,99074.64
2018-12-18T21:43:53.085Z,99069.57
2018-12-18T21:46:21.485Z,99069.67
2018-12-18T21:48:49.962Z,99064.73
2018-12-18T21:51:18.247Z,99054.78
2018-12-18T21:53:47.076Z,99056.05
2018-12-18T21:56:15.707Z,99049.05
2018-12-18T21:58:43.957Z,99042.23
2018-12-18T22:01:12.609Z,99044.40
2018-12-18T22:03:41.156Z,99040.35
2018-12-18T22:06:12.916Z,99028.42
2018-12-18T22:08:41.072Z,99030.96
2018-12-18T22:11:09.648Z,99027.80
2018-12-18T22:13:37.867Z,99026.45
2018-12-18T22:16:06.097Z,99022.84
2018-12-18T22:18:34.337Z,99017.66
2018-12-18T22:21:02.565Z,99012.15
2018-12-18T22:23:32.201Z,99009.67
2018-12-18T22:26:00.940Z,99015.56
2018-12-18T22:28:29.124Z,99018.97
2018-12-18T22:30:57.407Z,99014.71
2018-12-18T22:33:25.594Z,99023.94
2018-12-18T22:35:54.555Z,99021.52
2018-12-18T22:38:22.716Z,99019.88
2018-12-18T22:40:51.508Z,99012.80
2018-12-18T22:43:20.034Z,99012.69
2018-12-18T22:45:48.279Z,99021.70
2018-12-18T22:48:16.575Z,99033.52
2018-12-18T22:50:44.845Z,99033.92
2018-12-18T22:53:13.053Z,99028.91
2018-12-18T22:55:44.851Z,99032.17
2018-12-18T22:58:11.733Z,99040.56
2018-12-18T23:00:45.245Z,99025.53
2018-12-18T23:03:13.417Z,99036.35
2018-12-18T23:05:41.620Z,99028.94
2018-12-18T23:08:09.817Z,99030.25
2018-12-18T23:10:38.902Z,99029.19
2018-12-18T23:13:07.151Z,99025.42
2018-12-18T23:15:35.396Z,99023.22
2018-12-18T23:18:03.618Z,99038.70
2018-12-18T23:20:32.532Z,99036.27
2018-12-18T23:23:00.812Z,99029.05
2018-12-18T23:25:28.974Z,99027.14
2018-12-18T23:27:57.126Z,99015.48
2018-12-18T23:30:25.359Z,99012.70
2018-12-18T23:32:54.560Z,99010.87
2018-12-18T23:35:23.315Z,99004.18
2018-12-18T23:37:51.562Z,98988.06
2018-12-18T23:40:19.787Z,99000.86
2018-12-18T23:42:48.243Z,98995.22
2018-12-18T23:45:16.561Z,98993.66
2018-12-18T23:47:44.880Z,98986.48
2018-12-18T23:50:13.092Z,99000.73
2018-12-18T23:52:41.334Z,98987.91
2018-12-18T23:55:09.470Z,98995.07
2018-12-18T23:57:37.648Z,98994.69
